sensor_id;sensor_type;location;lat;lon;timestamp;P1;durP1;ratioP1;P2;durP2;ratioP2
68718;SDS011;55696;52.138;5.444;2023-04-16T00:01:03;9.80;;;2.75;;
68718;SDS011;55696;52.138;5.444;2023-04-16T00:03:30;9.63;;;3.25;;
68718;SDS011;55696;52.138;5.444;2023-04-16T00:05:57;9.50;;;2.78;;
68718;SDS011;55696;52.138;5.444;2023-04-16T00:08:24;11.40;;;2.90;;
68718;SDS011;55696;52.138;5.444;2023-04-16T00:10:54;10.73;;;2.67;;
68718;SDS011;55696;52.138;5.444;2023-04-16T00:13:21;9.75;;;2.75;;
68718;SDS011;55696;52.138;5.444;2023-04-16T00:15:48;11.60;;;3.17;;
68718;SDS011;55696;52.138;5.444;2023-04-16T00:18:14;8.73;;;2.80;;
68718;SDS011;55696;52.138;5.444;2023-04-16T00:20:41;7.45;;;2.10;;
68718;SDS011;55696;52.138;5.444;2023-04-16T00:23:08;8.17;;;2.27;;
68718;SDS011;55696;52.138;5.444;2023-04-16T00:25:34;6.85;;;2.35;;
68718;SDS011;55696;52.138;5.444;2023-04-16T00:28:01;10.10;;;3.40;;
68718;SDS011;55696;52.138;5.444;2023-04-16T00:30:28;9.13;;;3.20;;
68718;SDS011;55696;52.138;5.444;2023-04-16T00:32:54;16.35;;;3.70;;
68718;SDS011;55696;52.138;5.444;2023-04-16T00:35:21;13.10;;;3.23;;
68718;SDS011;55696;52.138;5.444;2023-04-16T00:37:48;10.30;;;3.22;;
68718;SDS011;55696;52.138;5.444;2023-04-16T00:40:15;10.82;;;3.15;;
68718;SDS011;55696;52.138;5.444;2023-04-16T00:42:41;12.75;;;3.53;;
68718;SDS011;55696;52.138;5.444;2023-04-16T00:45:08;13.70;;;3.13;;
68718;SDS011;55696;52.138;5.444;2023-04-16T00:47:36;14.27;;;3.43;;
68718;SDS011;55696;52.138;5.444;2023-04-16T00:50:03;12.35;;;2.78;;
68718;SDS011;55696;52.138;5.444;2023-04-16T00:52:31;10.13;;;3.60;;
68718;SDS011;55696;52.138;5.444;2023-04-16T00:54:58;10.77;;;3.15;;
68718;SDS011;55696;52.138;5.444;2023-04-16T00:57:25;16.10;;;4.20;;
68718;SDS011;55696;52.138;5.444;2023-04-16T00:59:53;16.43;;;4.03;;
68718;SDS011;55696;52.138;5.444;2023-04-16T01:02:19;14.38;;;3.22;;
68718;SDS011;55696;52.138;5.444;2023-04-16T01:04:48;13.45;;;3.63;;
68718;SDS011;55696;52.138;5.444;2023-04-16T01:07:16;15.85;;;3.30;;
68718;SDS011;55696;52.138;5.444;2023-04-16T01:09:43;14.18;;;3.63;;
68718;SDS011;55696;52.138;5.444;2023-04-16T01:12:10;12.37;;;3.83;;
68718;SDS011;55696;52.138;5.444;2023-04-16T01:14:36;11.27;;;3.85;;
68718;SDS011;55696;52.138;5.444;2023-04-16T01:17:03;16.48;;;3.83;;
68718;SDS011;55696;52.138;5.444;2023-04-16T01:19:30;18.13;;;4.22;;
68718;SDS011;55696;52.138;5.444;2023-04-16T01:21:57;15.80;;;4.43;;
68718;SDS011;55696;52.138;5.444;2023-04-16T01:24:24;30.63;;;4.47;;
68718;SDS011;55696;52.138;5.444;2023-04-16T01:26:51;15.52;;;4.35;;
68718;SDS011;55696;52.138;5.444;2023-04-16T01:29:17;12.15;;;4.38;;
68718;SDS011;55696;52.138;5.444;2023-04-16T01:31:44;16.23;;;4.18;;
68718;SDS011;55696;52.138;5.444;2023-04-16T01:34:19;10.60;;;3.55;;
68718;SDS011;55696;52.138;5.444;2023-04-16T01:36:46;16.40;;;4.30;;
68718;SDS011;55696;52.138;5.444;2023-04-16T01:39:13;16.73;;;4.38;;
68718;SDS011;55696;52.138;5.444;2023-04-16T01:41:41;18.80;;;4.53;;
68718;SDS011;55696;52.138;5.444;2023-04-16T01:44:08;10.15;;;4.28;;
68718;SDS011;55696;52.138;5.444;2023-04-16T01:46:35;11.32;;;3.50;;
68718;SDS011;55696;52.138;5.444;2023-04-16T01:49:03;12.27;;;4.13;;
68718;SDS011;55696;52.138;5.444;2023-04-16T01:51:32;15.13;;;4.10;;
68718;SDS011;55696;52.138;5.444;2023-04-16T01:53:59;21.42;;;4.28;;
68718;SDS011;55696;52.138;5.444;2023-04-16T01:56:26;18.92;;;4.82;;
68718;SDS011;55696;52.138;5.444;2023-04-16T01:58:53;17.27;;;4.65;;
68718;SDS011;55696;52.138;5.444;2023-04-16T02:01:20;18.50;;;4.33;;
68718;SDS011;55696;52.138;5.444;2023-04-16T02:03:47;20.95;;;4.95;;
68718;SDS011;55696;52.138;5.444;2023-04-16T02:06:14;16.95;;;4.85;;
68718;SDS011;55696;52.138;5.444;2023-04-16T02:08:41;19.08;;;5.13;;
68718;SDS011;55696;52.138;5.444;2023-04-16T02:11:08;23.10;;;5.30;;
68718;SDS011;55696;52.138;5.444;2023-04-16T02:13:35;18.93;;;5.47;;
68718;SDS011;55696;52.138;5.444;2023-04-16T02:16:02;14.30;;;5.25;;
68718;SDS011;55696;52.138;5.444;2023-04-16T02:18:47;14.85;;;4.70;;
68718;SDS011;55696;52.138;5.444;2023-04-16T02:21:16;21.38;;;6.78;;
68718;SDS011;55696;52.138;5.444;2023-04-16T02:23:43;23.48;;;7.03;;
68718;SDS011;55696;52.138;5.444;2023-04-16T02:26:13;22.47;;;6.27;;
68718;SDS011;55696;52.138;5.444;2023-04-16T02:28:40;22.42;;;5.65;;
68718;SDS011;55696;52.138;5.444;2023-04-16T02:31:09;16.40;;;5.55;;
68718;SDS011;55696;52.138;5.444;2023-04-16T02:33:41;18.88;;;6.53;;
68718;SDS011;55696;52.138;5.444;2023-04-16T02:36:08;21.90;;;7.10;;
68718;SDS011;55696;52.138;5.444;2023-04-16T02:38:36;17.40;;;6.13;;
68718;SDS011;55696;52.138;5.444;2023-04-16T02:41:03;19.67;;;6.95;;
68718;SDS011;55696;52.138;5.444;2023-04-16T02:43:31;22.50;;;7.68;;
68718;SDS011;55696;52.138;5.444;2023-04-16T02:45:58;24.50;;;7.53;;
68718;SDS011;55696;52.138;5.444;2023-04-16T02:48:24;20.13;;;8.13;;
68718;SDS011;55696;52.138;5.444;2023-04-16T02:50:51;19.97;;;7.60;;
68718;SDS011;55696;52.138;5.444;2023-04-16T02:53:20;22.90;;;7.80;;
68718;SDS011;55696;52.138;5.444;2023-04-16T02:55:53;23.17;;;6.72;;
68718;SDS011;55696;52.138;5.444;2023-04-16T02:58:21;20.15;;;6.63;;
68718;SDS011;55696;52.138;5.444;2023-04-16T03:00:49;22.02;;;7.15;;
68718;SDS011;55696;52.138;5.444;2023-04-16T03:03:17;22.23;;;7.20;;
68718;SDS011;55696;52.138;5.444;2023-04-16T03:05:44;21.77;;;7.13;;
68718;SDS011;55696;52.138;5.444;2023-04-16T03:08:11;21.02;;;7.47;;
68718;SDS011;55696;52.138;5.444;2023-04-16T03:10:38;18.25;;;7.88;;
68718;SDS011;55696;52.138;5.444;2023-04-16T03:13:05;18.15;;;7.68;;
68718;SDS011;55696;52.138;5.444;2023-04-16T03:15:32;21.77;;;8.60;;
68718;SDS011;55696;52.138;5.444;2023-04-16T03:17:59;22.52;;;8.25;;
68718;SDS011;55696;52.138;5.444;2023-04-16T03:20:26;24.88;;;9.07;;
68718;SDS011;55696;52.138;5.444;2023-04-16T03:22:53;21.85;;;8.65;;
68718;SDS011;55696;52.138;5.444;2023-04-16T03:25:20;19.95;;;8.50;;
68718;SDS011;55696;52.138;5.444;2023-04-16T03:27:46;17.37;;;8.07;;
68718;SDS011;55696;52.138;5.444;2023-04-16T03:30:15;20.55;;;8.35;;
68718;SDS011;55696;52.138;5.444;2023-04-16T03:32:42;30.15;;;9.27;;
68718;SDS011;55696;52.138;5.444;2023-04-16T03:35:09;24.40;;;8.18;;
68718;SDS011;55696;52.138;5.444;2023-04-16T03:37:36;25.20;;;7.65;;
68718;SDS011;55696;52.138;5.444;2023-04-16T03:40:03;15.93;;;7.17;;
68718;SDS011;55696;52.138;5.444;2023-04-16T03:42:32;21.10;;;7.43;;
68718;SDS011;55696;52.138;5.444;2023-04-16T03:44:59;24.95;;;8.10;;
68718;SDS011;55696;52.138;5.444;2023-04-16T03:47:26;18.65;;;7.07;;
68718;SDS011;55696;52.138;5.444;2023-04-16T03:49:57;18.80;;;7.70;;
68718;SDS011;55696;52.138;5.444;2023-04-16T03:52:23;20.97;;;6.93;;
68718;SDS011;55696;52.138;5.444;2023-04-16T03:54:51;19.17;;;6.95;;
68718;SDS011;55696;52.138;5.444;2023-04-16T03:57:24;19.50;;;8.45;;
68718;SDS011;55696;52.138;5.444;2023-04-16T03:59:55;18.15;;;7.50;;
68718;SDS011;55696;52.138;5.444;2023-04-16T04:02:24;19.92;;;7.65;;
68718;SDS011;55696;52.138;5.444;2023-04-16T04:04:51;19.77;;;6.67;;
68718;SDS011;55696;52.138;5.444;2023-04-16T04:07:18;17.52;;;7.57;;
68718;SDS011;55696;52.138;5.444;2023-04-16T04:09:45;21.48;;;7.78;;
68718;SDS011;55696;52.138;5.444;2023-04-16T04:12:11;21.83;;;7.78;;
68718;SDS011;55696;52.138;5.444;2023-04-16T04:14:40;18.98;;;8.05;;
68718;SDS011;55696;52.138;5.444;2023-04-16T04:17:07;22.63;;;7.93;;
68718;SDS011;55696;52.138;5.444;2023-04-16T04:19:34;18.70;;;7.93;;
68718;SDS011;55696;52.138;5.444;2023-04-16T04:22:01;19.98;;;8.05;;
68718;SDS011;55696;52.138;5.444;2023-04-16T04:24:28;19.90;;;8.00;;
68718;SDS011;55696;52.138;5.444;2023-04-16T04:26:56;30.02;;;8.63;;
68718;SDS011;55696;52.138;5.444;2023-04-16T04:29:23;24.17;;;8.30;;
68718;SDS011;55696;52.138;5.444;2023-04-16T04:31:50;20.42;;;7.72;;
68718;SDS011;55696;52.138;5.444;2023-04-16T04:34:17;20.88;;;7.68;;
68718;SDS011;55696;52.138;5.444;2023-04-16T04:36:44;21.08;;;8.20;;
68718;SDS011;55696;52.138;5.444;2023-04-16T04:39:12;21.52;;;8.13;;
68718;SDS011;55696;52.138;5.444;2023-04-16T04:41:41;24.97;;;7.80;;
68718;SDS011;55696;52.138;5.444;2023-04-16T04:44:08;25.35;;;8.13;;
68718;SDS011;55696;52.138;5.444;2023-04-16T04:46:35;22.58;;;7.93;;
68718;SDS011;55696;52.138;5.444;2023-04-16T04:49:01;25.23;;;8.60;;
68718;SDS011;55696;52.138;5.444;2023-04-16T04:51:29;26.92;;;9.15;;
68718;SDS011;55696;52.138;5.444;2023-04-16T04:53:57;21.40;;;8.20;;
68718;SDS011;55696;52.138;5.444;2023-04-16T04:56:24;26.73;;;8.27;;
68718;SDS011;55696;52.138;5.444;2023-04-16T04:58:50;23.52;;;8.43;;
68718;SDS011;55696;52.138;5.444;2023-04-16T05:01:18;19.15;;;7.95;;
68718;SDS011;55696;52.138;5.444;2023-04-16T05:03:45;24.35;;;8.25;;
68718;SDS011;55696;52.138;5.444;2023-04-16T05:06:12;25.00;;;6.73;;
68718;SDS011;55696;52.138;5.444;2023-04-16T05:08:39;16.92;;;7.70;;
68718;SDS011;55696;52.138;5.444;2023-04-16T05:11:05;26.23;;;8.60;;
68718;SDS011;55696;52.138;5.444;2023-04-16T05:13:32;22.55;;;8.32;;
68718;SDS011;55696;52.138;5.444;2023-04-16T05:15:59;21.02;;;7.93;;
68718;SDS011;55696;52.138;5.444;2023-04-16T05:18:26;20.70;;;7.93;;
68718;SDS011;55696;52.138;5.444;2023-04-16T05:20:52;23.30;;;8.55;;
68718;SDS011;55696;52.138;5.444;2023-04-16T05:23:19;23.05;;;8.57;;
68718;SDS011;55696;52.138;5.444;2023-04-16T05:25:46;19.60;;;7.78;;
68718;SDS011;55696;52.138;5.444;2023-04-16T05:28:12;29.33;;;8.65;;
68718;SDS011;55696;52.138;5.444;2023-04-16T05:30:39;21.33;;;7.80;;
68718;SDS011;55696;52.138;5.444;2023-04-16T05:33:06;22.58;;;8.75;;
68718;SDS011;55696;52.138;5.444;2023-04-16T05:35:33;19.58;;;8.73;;
68718;SDS011;55696;52.138;5.444;2023-04-16T05:38:00;25.45;;;8.40;;
68718;SDS011;55696;52.138;5.444;2023-04-16T05:40:27;24.73;;;8.23;;
68718;SDS011;55696;52.138;5.444;2023-04-16T05:42:54;15.40;;;6.53;;
68718;SDS011;55696;52.138;5.444;2023-04-16T05:45:20;15.90;;;7.25;;
68718;SDS011;55696;52.138;5.444;2023-04-16T05:47:47;20.17;;;7.70;;
68718;SDS011;55696;52.138;5.444;2023-04-16T05:50:14;20.60;;;7.63;;
68718;SDS011;55696;52.138;5.444;2023-04-16T05:52:41;27.60;;;7.90;;
68718;SDS011;55696;52.138;5.444;2023-04-16T05:55:08;21.53;;;7.90;;
68718;SDS011;55696;52.138;5.444;2023-04-16T05:57:34;16.27;;;7.22;;
68718;SDS011;55696;52.138;5.444;2023-04-16T06:00:01;22.05;;;8.70;;
68718;SDS011;55696;52.138;5.444;2023-04-16T06:02:37;23.25;;;7.50;;
68718;SDS011;55696;52.138;5.444;2023-04-16T06:05:04;25.75;;;8.88;;
68718;SDS011;55696;52.138;5.444;2023-04-16T06:07:31;27.23;;;8.03;;
68718;SDS011;55696;52.138;5.444;2023-04-16T06:09:58;21.77;;;7.45;;
68718;SDS011;55696;52.138;5.444;2023-04-16T06:12:24;25.83;;;8.32;;
68718;SDS011;55696;52.138;5.444;2023-04-16T06:14:51;20.55;;;7.57;;
68718;SDS011;55696;52.138;5.444;2023-04-16T06:17:18;25.15;;;8.20;;
68718;SDS011;55696;52.138;5.444;2023-04-16T06:19:44;29.53;;;9.03;;
68718;SDS011;55696;52.138;5.444;2023-04-16T06:22:11;24.73;;;8.20;;
68718;SDS011;55696;52.138;5.444;2023-04-16T06:24:38;26.25;;;8.93;;
68718;SDS011;55696;52.138;5.444;2023-04-16T06:27:05;25.80;;;8.82;;
68718;SDS011;55696;52.138;5.444;2023-04-16T06:29:31;22.52;;;8.98;;
68718;SDS011;55696;52.138;5.444;2023-04-16T06:32:06;23.63;;;8.97;;
68718;SDS011;55696;52.138;5.444;2023-04-16T06:34:33;20.88;;;8.48;;
68718;SDS011;55696;52.138;5.444;2023-04-16T06:37:00;19.67;;;8.30;;
68718;SDS011;55696;52.138;5.444;2023-04-16T06:39:26;21.50;;;8.82;;
68718;SDS011;55696;52.138;5.444;2023-04-16T06:41:53;28.30;;;10.52;;
68718;SDS011;55696;52.138;5.444;2023-04-16T06:44:21;24.53;;;9.10;;
68718;SDS011;55696;52.138;5.444;2023-04-16T06:46:47;25.75;;;9.55;;
68718;SDS011;55696;52.138;5.444;2023-04-16T06:49:15;25.98;;;10.20;;
68718;SDS011;55696;52.138;5.444;2023-04-16T06:51:42;23.38;;;9.82;;
68718;SDS011;55696;52.138;5.444;2023-04-16T06:54:08;24.55;;;9.50;;
68718;SDS011;55696;52.138;5.444;2023-04-16T06:56:35;24.67;;;10.47;;
68718;SDS011;55696;52.138;5.444;2023-04-16T06:59:02;21.15;;;10.18;;
68718;SDS011;55696;52.138;5.444;2023-04-16T07:01:29;32.15;;;10.70;;
68718;SDS011;55696;52.138;5.444;2023-04-16T07:03:56;19.15;;;9.43;;
68718;SDS011;55696;52.138;5.444;2023-04-16T07:06:24;25.25;;;10.57;;
68718;SDS011;55696;52.138;5.444;2023-04-16T07:08:52;24.03;;;9.83;;
68718;SDS011;55696;52.138;5.444;2023-04-16T07:11:18;27.67;;;11.35;;
68718;SDS011;55696;52.138;5.444;2023-04-16T07:13:46;22.98;;;10.65;;
68718;SDS011;55696;52.138;5.444;2023-04-16T07:16:12;28.38;;;10.90;;
68718;SDS011;55696;52.138;5.444;2023-04-16T07:18:39;27.33;;;11.43;;
68718;SDS011;55696;52.138;5.444;2023-04-16T07:21:06;25.87;;;11.77;;
68718;SDS011;55696;52.138;5.444;2023-04-16T07:23:33;42.92;;;12.32;;
68718;SDS011;55696;52.138;5.444;2023-04-16T07:25:59;23.75;;;10.25;;
68718;SDS011;55696;52.138;5.444;2023-04-16T07:28:26;21.80;;;10.65;;
68718;SDS011;55696;52.138;5.444;2023-04-16T07:30:53;26.42;;;10.60;;
68718;SDS011;55696;52.138;5.444;2023-04-16T07:33:20;22.17;;;10.33;;
68718;SDS011;55696;52.138;5.444;2023-04-16T07:35:46;30.77;;;10.77;;
68718;SDS011;55696;52.138;5.444;2023-04-16T07:38:13;24.17;;;9.60;;
68718;SDS011;55696;52.138;5.444;2023-04-16T07:40:41;19.27;;;7.90;;
68718;SDS011;55696;52.138;5.444;2023-04-16T07:43:08;23.80;;;10.55;;
68718;SDS011;55696;52.138;5.444;2023-04-16T07:45:35;21.40;;;9.67;;
68718;SDS011;55696;52.138;5.444;2023-04-16T07:48:02;21.60;;;9.32;;
68718;SDS011;55696;52.138;5.444;2023-04-16T07:50:28;29.58;;;10.32;;
68718;SDS011;55696;52.138;5.444;2023-04-16T07:52:55;21.80;;;9.63;;
68718;SDS011;55696;52.138;5.444;2023-04-16T07:55:22;23.67;;;9.88;;
68718;SDS011;55696;52.138;5.444;2023-04-16T07:57:49;19.90;;;8.70;;
68718;SDS011;55696;52.138;5.444;2023-04-16T08:00:15;20.45;;;8.95;;
68718;SDS011;55696;52.138;5.444;2023-04-16T08:02:42;22.15;;;9.52;;
68718;SDS011;55696;52.138;5.444;2023-04-16T08:05:11;18.77;;;8.50;;
68718;SDS011;55696;52.138;5.444;2023-04-16T08:07:38;19.25;;;8.85;;
68718;SDS011;55696;52.138;5.444;2023-04-16T08:10:05;22.57;;;9.10;;
68718;SDS011;55696;52.138;5.444;2023-04-16T08:12:33;17.90;;;7.68;;
68718;SDS011;55696;52.138;5.444;2023-04-16T08:15:00;18.25;;;8.23;;
68718;SDS011;55696;52.138;5.444;2023-04-16T08:17:27;22.25;;;9.10;;
68718;SDS011;55696;52.138;5.444;2023-04-16T08:19:55;15.10;;;7.43;;
68718;SDS011;55696;52.138;5.444;2023-04-16T08:22:21;16.17;;;7.60;;
68718;SDS011;55696;52.138;5.444;2023-04-16T08:24:48;16.92;;;7.53;;
68718;SDS011;55696;52.138;5.444;2023-04-16T08:27:15;16.25;;;7.65;;
68718;SDS011;55696;52.138;5.444;2023-04-16T08:29:46;19.95;;;8.52;;
68718;SDS011;55696;52.138;5.444;2023-04-16T08:32:13;14.13;;;6.53;;
68718;SDS011;55696;52.138;5.444;2023-04-16T08:34:40;11.00;;;5.83;;
68718;SDS011;55696;52.138;5.444;2023-04-16T08:37:07;15.63;;;7.25;;
68718;SDS011;55696;52.138;5.444;2023-04-16T08:39:34;12.48;;;6.53;;
68718;SDS011;55696;52.138;5.444;2023-04-16T08:42:01;14.85;;;6.57;;
68718;SDS011;55696;52.138;5.444;2023-04-16T08:44:32;15.15;;;6.97;;
68718;SDS011;55696;52.138;5.444;2023-04-16T08:47:02;14.07;;;6.50;;
68718;SDS011;55696;52.138;5.444;2023-04-16T08:49:34;12.75;;;6.45;;
68718;SDS011;55696;52.138;5.444;2023-04-16T08:52:08;12.70;;;6.28;;
68718;SDS011;55696;52.138;5.444;2023-04-16T08:55:18;12.77;;;5.97;;
68718;SDS011;55696;52.138;5.444;2023-04-16T08:57:56;14.98;;;6.25;;
68718;SDS011;55696;52.138;5.444;2023-04-16T09:00:24;8.60;;;5.10;;
68718;SDS011;55696;52.138;5.444;2023-04-16T09:02:51;14.20;;;5.60;;
68718;SDS011;55696;52.138;5.444;2023-04-16T09:05:19;13.82;;;6.78;;
68718;SDS011;55696;52.138;5.444;2023-04-16T09:07:51;11.68;;;6.05;;
68718;SDS011;55696;52.138;5.444;2023-04-16T09:10:19;14.13;;;6.32;;
68718;SDS011;55696;52.138;5.444;2023-04-16T09:12:46;11.40;;;5.60;;
68718;SDS011;55696;52.138;5.444;2023-04-16T09:15:13;12.55;;;6.32;;
68718;SDS011;55696;52.138;5.444;2023-04-16T09:17:40;13.00;;;5.97;;
68718;SDS011;55696;52.138;5.444;2023-04-16T09:20:07;11.52;;;5.70;;
68718;SDS011;55696;52.138;5.444;2023-04-16T09:22:36;12.48;;;5.70;;
68718;SDS011;55696;52.138;5.444;2023-04-16T09:25:04;10.27;;;5.63;;
68718;SDS011;55696;52.138;5.444;2023-04-16T09:27:31;12.98;;;5.53;;
68718;SDS011;55696;52.138;5.444;2023-04-16T09:29:58;13.48;;;5.93;;
68718;SDS011;55696;52.138;5.444;2023-04-16T09:32:27;15.43;;;6.05;;
68718;SDS011;55696;52.138;5.444;2023-04-16T09:37:28;13.53;;;6.00;;
68718;SDS011;55696;52.138;5.444;2023-04-16T09:39:59;16.10;;;5.80;;
68718;SDS011;55696;52.138;5.444;2023-04-16T09:42:28;11.68;;;5.57;;
68718;SDS011;55696;52.138;5.444;2023-04-16T09:44:57;12.13;;;5.35;;
68718;SDS011;55696;52.138;5.444;2023-04-16T09:47:37;11.85;;;6.07;;
68718;SDS011;55696;52.138;5.444;2023-04-16T09:50:10;12.17;;;6.30;;
68718;SDS011;55696;52.138;5.444;2023-04-16T09:52:44;15.55;;;6.93;;
68718;SDS011;55696;52.138;5.444;2023-04-16T09:55:15;13.07;;;6.40;;
68718;SDS011;55696;52.138;5.444;2023-04-16T09:57:42;15.50;;;6.25;;
68718;SDS011;55696;52.138;5.444;2023-04-16T10:00:08;14.10;;;6.63;;
68718;SDS011;55696;52.138;5.444;2023-04-16T10:02:38;13.27;;;6.27;;
68718;SDS011;55696;52.138;5.444;2023-04-16T10:05:07;12.65;;;6.10;;
68718;SDS011;55696;52.138;5.444;2023-04-16T10:07:35;17.75;;;7.47;;
68718;SDS011;55696;52.138;5.444;2023-04-16T10:10:03;19.30;;;7.88;;
68718;SDS011;55696;52.138;5.444;2023-04-16T10:12:30;17.95;;;7.07;;
68718;SDS011;55696;52.138;5.444;2023-04-16T10:14:58;16.83;;;6.37;;
68718;SDS011;55696;52.138;5.444;2023-04-16T10:17:25;15.32;;;7.20;;
68718;SDS011;55696;52.138;5.444;2023-04-16T10:19:55;14.80;;;6.43;;
68718;SDS011;55696;52.138;5.444;2023-04-16T10:22:23;20.80;;;7.82;;
68718;SDS011;55696;52.138;5.444;2023-04-16T10:24:51;18.73;;;8.25;;
68718;SDS011;55696;52.138;5.444;2023-04-16T10:27:18;25.00;;;8.80;;
68718;SDS011;55696;52.138;5.444;2023-04-16T10:29:46;19.35;;;8.70;;
68718;SDS011;55696;52.138;5.444;2023-04-16T10:32:14;21.63;;;7.90;;
68718;SDS011;55696;52.138;5.444;2023-04-16T10:34:42;22.15;;;8.52;;
68718;SDS011;55696;52.138;5.444;2023-04-16T10:37:09;20.77;;;8.75;;
68718;SDS011;55696;52.138;5.444;2023-04-16T10:39:36;29.70;;;9.50;;
68718;SDS011;55696;52.138;5.444;2023-04-16T10:42:10;22.30;;;9.32;;
68718;SDS011;55696;52.138;5.444;2023-04-16T10:44:38;19.15;;;9.68;;
68718;SDS011;55696;52.138;5.444;2023-04-16T10:47:11;21.23;;;8.85;;
68718;SDS011;55696;52.138;5.444;2023-04-16T10:49:38;22.50;;;8.88;;
68718;SDS011;55696;52.138;5.444;2023-04-16T10:52:08;18.53;;;8.17;;
68718;SDS011;55696;52.138;5.444;2023-04-16T10:54:35;17.60;;;7.80;;
68718;SDS011;55696;52.138;5.444;2023-04-16T10:57:03;17.77;;;7.80;;
68718;SDS011;55696;52.138;5.444;2023-04-16T10:59:50;15.90;;;8.77;;
68718;SDS011;55696;52.138;5.444;2023-04-16T11:02:17;21.90;;;9.10;;
68718;SDS011;55696;52.138;5.444;2023-04-16T11:04:45;22.10;;;8.40;;
68718;SDS011;55696;52.138;5.444;2023-04-16T11:07:16;17.00;;;7.85;;
68718;SDS011;55696;52.138;5.444;2023-04-16T11:12:26;16.95;;;7.63;;
68718;SDS011;55696;52.138;5.444;2023-04-16T11:15:07;21.80;;;9.13;;
68718;SDS011;55696;52.138;5.444;2023-04-16T11:17:38;17.30;;;8.20;;
68718;SDS011;55696;52.138;5.444;2023-04-16T11:20:15;19.58;;;7.95;;
68718;SDS011;55696;52.138;5.444;2023-04-16T11:22:50;15.77;;;7.85;;
68718;SDS011;55696;52.138;5.444;2023-04-16T11:25:18;18.27;;;8.18;;
68718;SDS011;55696;52.138;5.444;2023-04-16T11:27:46;18.38;;;9.32;;
68718;SDS011;55696;52.138;5.444;2023-04-16T11:30:13;18.33;;;8.23;;
68718;SDS011;55696;52.138;5.444;2023-04-16T11:32:39;17.45;;;8.60;;
68718;SDS011;55696;52.138;5.444;2023-04-16T11:35:13;23.73;;;9.82;;
68718;SDS011;55696;52.138;5.444;2023-04-16T11:37:42;20.45;;;8.18;;
68718;SDS011;55696;52.138;5.444;2023-04-16T11:40:09;17.40;;;9.90;;
68718;SDS011;55696;52.138;5.444;2023-04-16T11:42:37;18.80;;;9.53;;
68718;SDS011;55696;52.138;5.444;2023-04-16T11:45:09;20.92;;;9.65;;
68718;SDS011;55696;52.138;5.444;2023-04-16T11:47:47;17.40;;;9.00;;
68718;SDS011;55696;52.138;5.444;2023-04-16T11:50:20;22.58;;;9.10;;
68718;SDS011;55696;52.138;5.444;2023-04-16T11:52:49;21.60;;;9.57;;
68718;SDS011;55696;52.138;5.444;2023-04-16T11:55:17;19.77;;;9.33;;
68718;SDS011;55696;52.138;5.444;2023-04-16T11:57:44;19.25;;;9.85;;
68718;SDS011;55696;52.138;5.444;2023-04-16T12:00:12;22.42;;;9.90;;
68718;SDS011;55696;52.138;5.444;2023-04-16T12:02:40;25.65;;;10.75;;
68718;SDS011;55696;52.138;5.444;2023-04-16T12:07:56;24.63;;;10.50;;
68718;SDS011;55696;52.138;5.444;2023-04-16T12:10:24;25.85;;;10.90;;
68718;SDS011;55696;52.138;5.444;2023-04-16T12:12:51;25.88;;;10.85;;
68718;SDS011;55696;52.138;5.444;2023-04-16T12:15:18;31.25;;;10.90;;
68718;SDS011;55696;52.138;5.444;2023-04-16T12:17:44;25.60;;;10.68;;
68718;SDS011;55696;52.138;5.444;2023-04-16T12:20:12;21.40;;;9.90;;
68718;SDS011;55696;52.138;5.444;2023-04-16T12:22:44;19.92;;;9.07;;
68718;SDS011;55696;52.138;5.444;2023-04-16T12:25:13;23.02;;;10.45;;
68718;SDS011;55696;52.138;5.444;2023-04-16T12:27:45;24.83;;;10.18;;
68718;SDS011;55696;52.138;5.444;2023-04-16T12:30:18;19.83;;;10.48;;
68718;SDS011;55696;52.138;5.444;2023-04-16T12:32:46;23.27;;;9.53;;
68718;SDS011;55696;52.138;5.444;2023-04-16T12:35:30;20.60;;;8.65;;
68718;SDS011;55696;52.138;5.444;2023-04-16T12:37:58;26.83;;;11.10;;
68718;SDS011;55696;52.138;5.444;2023-04-16T12:40:26;24.38;;;9.88;;
68718;SDS011;55696;52.138;5.444;2023-04-16T12:42:52;19.58;;;8.68;;
68718;SDS011;55696;52.138;5.444;2023-04-16T12:45:19;19.57;;;9.30;;
68718;SDS011;55696;52.138;5.444;2023-04-16T12:47:47;23.08;;;9.77;;
68718;SDS011;55696;52.138;5.444;2023-04-16T12:50:15;18.38;;;9.00;;
68718;SDS011;55696;52.138;5.444;2023-04-16T12:52:43;17.35;;;9.10;;
68718;SDS011;55696;52.138;5.444;2023-04-16T12:55:10;21.33;;;9.65;;
68718;SDS011;55696;52.138;5.444;2023-04-16T12:57:37;24.07;;;9.57;;
68718;SDS011;55696;52.138;5.444;2023-04-16T13:00:04;17.83;;;9.20;;
68718;SDS011;55696;52.138;5.444;2023-04-16T13:02:31;18.60;;;10.07;;
68718;SDS011;55696;52.138;5.444;2023-04-16T13:04:59;20.63;;;9.32;;
68718;SDS011;55696;52.138;5.444;2023-04-16T13:07:26;18.90;;;8.88;;
68718;SDS011;55696;52.138;5.444;2023-04-16T13:09:53;24.87;;;10.50;;
68718;SDS011;55696;52.138;5.444;2023-04-16T13:12:20;23.70;;;9.93;;
68718;SDS011;55696;52.138;5.444;2023-04-16T13:14:46;21.58;;;8.98;;
68718;SDS011;55696;52.138;5.444;2023-04-16T13:17:13;20.85;;;9.40;;
68718;SDS011;55696;52.138;5.444;2023-04-16T13:19:40;27.30;;;10.15;;
68718;SDS011;55696;52.138;5.444;2023-04-16T13:22:08;21.93;;;9.57;;
68718;SDS011;55696;52.138;5.444;2023-04-16T13:24:34;27.00;;;10.25;;
68718;SDS011;55696;52.138;5.444;2023-04-16T13:27:01;27.50;;;9.65;;
68718;SDS011;55696;52.138;5.444;2023-04-16T13:29:28;24.70;;;10.48;;
68718;SDS011;55696;52.138;5.444;2023-04-16T13:31:55;28.27;;;11.15;;
68718;SDS011;55696;52.138;5.444;2023-04-16T13:34:22;26.83;;;10.60;;
68718;SDS011;55696;52.138;5.444;2023-04-16T13:36:49;23.02;;;10.02;;
68718;SDS011;55696;52.138;5.444;2023-04-16T13:39:16;24.55;;;9.13;;
68718;SDS011;55696;52.138;5.444;2023-04-16T13:41:42;26.05;;;10.60;;
68718;SDS011;55696;52.138;5.444;2023-04-16T13:44:09;21.50;;;8.23;;
68718;SDS011;55696;52.138;5.444;2023-04-16T13:46:36;24.80;;;8.97;;
68718;SDS011;55696;52.138;5.444;2023-04-16T13:49:03;23.92;;;9.88;;
68718;SDS011;55696;52.138;5.444;2023-04-16T13:51:29;15.52;;;8.60;;
68718;SDS011;55696;52.138;5.444;2023-04-16T13:53:57;19.27;;;9.07;;
68718;SDS011;55696;52.138;5.444;2023-04-16T13:56:23;22.48;;;8.75;;
68718;SDS011;55696;52.138;5.444;2023-04-16T13:58:50;18.70;;;8.40;;
68718;SDS011;55696;52.138;5.444;2023-04-16T14:01:17;18.02;;;8.38;;
68718;SDS011;55696;52.138;5.444;2023-04-16T14:03:44;20.77;;;9.10;;
68718;SDS011;55696;52.138;5.444;2023-04-16T14:06:11;18.40;;;8.05;;
68718;SDS011;55696;52.138;5.444;2023-04-16T14:08:40;18.30;;;8.35;;
68718;SDS011;55696;52.138;5.444;2023-04-16T14:11:06;15.13;;;7.33;;
68718;SDS011;55696;52.138;5.444;2023-04-16T14:13:34;19.60;;;8.38;;
68718;SDS011;55696;52.138;5.444;2023-04-16T14:16:01;17.02;;;8.65;;
68718;SDS011;55696;52.138;5.444;2023-04-16T14:18:28;21.40;;;8.45;;
68718;SDS011;55696;52.138;5.444;2023-04-16T14:20:56;24.48;;;9.13;;
68718;SDS011;55696;52.138;5.444;2023-04-16T14:23:23;15.97;;;7.93;;
68718;SDS011;55696;52.138;5.444;2023-04-16T14:25:51;20.50;;;7.43;;
68718;SDS011;55696;52.138;5.444;2023-04-16T14:28:18;18.85;;;7.65;;
68718;SDS011;55696;52.138;5.444;2023-04-16T14:30:45;15.38;;;7.25;;
68718;SDS011;55696;52.138;5.444;2023-04-16T14:33:12;13.85;;;6.90;;
68718;SDS011;55696;52.138;5.444;2023-04-16T14:35:38;17.40;;;7.73;;
68718;SDS011;55696;52.138;5.444;2023-04-16T14:38:05;18.27;;;7.90;;
68718;SDS011;55696;52.138;5.444;2023-04-16T14:40:33;14.77;;;7.55;;
68718;SDS011;55696;52.138;5.444;2023-04-16T14:42:59;16.48;;;7.70;;
68718;SDS011;55696;52.138;5.444;2023-04-16T14:45:26;22.60;;;8.35;;